Time;durP1;ratioP1;P1;durP2;ratioP2;P2;SDS_P1;SDS_P2;PMS_P1;PMS_P2;Temp;Humidity;BMP_temperature;BMP_pressure;BME280_temperature;BME280_humidity;BME280_pressure;Samples;Min_cycle;Max_cycle;Signal;HPM_P1;HPM_P2
2020/12/08 00:00:07;;;;;;;13.40;8.00;;;2.60;99.90;;;;;;5096165;28;20032;-65
2020/12/08 00:02:33;;;;;;;14.20;8.02;;;2.50;99.90;;;;;;5095793;28;20028;-65
2020/12/08 00:04:59;;;;;;;11.82;7.97;;;2.60;99.90;;;;;;5095417;28;20388;-65
2020/12/08 00:07:24;;;;;;;12.70;7.57;;;2.50;99.90;;;;;;5094116;28;20115;-65
2020/12/08 00:09:50;;;;;;;15.27;8.83;;;2.50;99.90;;;;;;5095616;28;20058;-66
2020/12/08 00:12:15;;;;;;;13.30;8.13;;;2.60;99.90;;;;;;5095245;28;20020;-65
2020/12/08 00:14:41;;;;;;;15.03;9.17;;;2.60;99.90;;;;;;5096571;28;20028;-65
2020/12/08 00:17:07;;;;;;;15.77;9.43;;;2.50;99.90;;;;;;5094894;28;20024;-65
2020/12/08 00:19:32;;;;;;;12.73;7.90;;;2.50;99.90;;;;;;5093912;28;20047;-64
2020/12/08 00:21:58;;;;;;;13.77;8.43;;;2.50;99.90;;;;;;5094438;28;20075;-65
2020/12/08 00:24:24;;;;;;;13.07;7.80;;;2.50;99.90;;;;;;5095741;28;20107;-64
2020/12/08 00:26:49;;;;;;;13.77;8.25;;;2.50;99.90;;;;;;5095026;28;20105;-64
2020/12/08 00:29:15;;;;;;;16.23;8.83;;;2.50;99.90;;;;;;5094588;28;20032;-63
2020/12/08 00:31:41;;;;;;;13.93;8.20;;;2.50;99.90;;;;;;5094488;28;20024;-65
2020/12/08 00:34:07;;;;;;;15.27;8.47;;;2.40;99.90;;;;;;5093188;28;20024;-65
2020/12/08 00:36:32;;;;;;;12.20;8.05;;;2.40;99.90;;;;;;5094508;28;20024;-65
2020/12/08 00:38:58;;;;;;;12.13;7.93;;;2.40;99.90;;;;;;5110020;28;20082;-66
2020/12/08 00:41:24;;;;;;;15.20;8.70;;;2.30;99.90;;;;;;5094565;28;20042;-65
2020/12/08 00:43:51;;;;;;;15.20;8.85;;;2.30;99.90;;;;;;5094087;28;20032;-65
2020/12/08 00:46:18;;;;;;;14.52;8.23;;;2.30;99.90;;;;;;5093824;28;20066;-65
2020/12/08 00:48:44;;;;;;;;;;;2.30;99.90;;;;;;5094412;28;20031;-66
2020/12/08 00:51:10;;;;;;;14.65;8.38;;;2.20;99.90;;;;;;5093981;28;19908;-65
2020/12/08 00:53:36;;;;;;;20.37;9.90;;;2.10;99.90;;;;;;5094036;28;20024;-65
2020/12/08 00:56:07;;;;;;;21.20;10.15;;;2.00;99.90;;;;;;5093891;28;20054;-64
2020/12/08 00:58:32;;;;;;;22.02;10.60;;;2.00;99.90;;;;;;5094060;28;20052;-65
2020/12/08 01:00:58;;;;;;;19.50;10.57;;;1.90;99.90;;;;;;5094333;28;20047;-65
2020/12/08 01:03:24;;;;;;;18.03;10.27;;;1.90;99.90;;;;;;5093816;28;20107;-65
2020/12/08 01:05:49;;;;;;;21.40;10.70;;;1.80;99.90;;;;;;5093884;28;20525;-67
2020/12/08 01:08:15;;;;;;;19.37;10.43;;;1.80;99.90;;;;;;5093925;28;20058;-65
2020/12/08 01:10:40;;;;;;;22.87;10.70;;;1.80;99.90;;;;;;5094222;28;20099;-65
2020/12/08 01:13:06;;;;;;;22.67;10.13;;;1.80;99.90;;;;;;5092365;28;20020;-65
2020/12/08 01:15:32;;;;;;;19.70;10.17;;;1.80;99.90;;;;;;5094703;28;20024;-65
2020/12/08 01:17:57;;;;;;;18.80;9.90;;;1.80;99.90;;;;;;5093869;28;20044;-65
2020/12/08 01:20:23;;;;;;;17.50;10.60;;;1.80;99.90;;;;;;5093806;28;20024;-66
2020/12/08 01:22:51;;;;;;;19.13;10.60;;;1.90;99.90;;;;;;5092350;28;20031;-66
2020/12/08 01:25:17;;;;;;;23.02;10.23;;;1.90;99.90;;;;;;5093479;28;20392;-65
2020/12/08 01:27:42;;;;;;;20.02;10.23;;;1.90;99.90;;;;;;5092163;28;20027;-65
2020/12/08 01:30:08;;;;;;;21.43;11.53;;;1.90;99.90;;;;;;5093475;28;20024;-65
2020/12/08 01:32:34;;;;;;;20.33;10.67;;;1.90;99.90;;;;;;5093773;28;20422;-64
2020/12/08 01:34:59;;;;;;;19.70;10.40;;;2.00;99.90;;;;;;5093658;28;20396;-62
2020/12/08 01:37:25;;;;;;;20.57;11.00;;;2.00;99.90;;;;;;5093921;28;20499;-63
2020/12/08 01:39:50;;;;;;;21.77;11.03;;;2.00;99.90;;;;;;5092754;28;20503;-65
2020/12/08 01:42:16;;;;;;;20.40;10.60;;;2.00;99.90;;;;;;5092746;28;20032;-65
2020/12/08 01:44:51;;;;;;;17.90;10.33;;;2.00;99.90;;;;;;5093264;28;20016;-65
2020/12/08 01:47:17;;;;;;;21.25;11.00;;;2.00;99.90;;;;;;5093281;28;20028;-66
2020/12/08 01:49:47;;;;;;;23.60;11.57;;;2.00;99.90;;;;;;5092061;28;20050;-67
2020/12/08 01:52:16;;;;;;;22.52;11.32;;;2.00;99.90;;;;;;5093264;28;20112;-66
2020/12/08 01:54:42;;;;;;;20.10;11.00;;;2.00;99.90;;;;;;5093482;28;20074;-66
2020/12/08 01:57:08;;;;;;;;;;;2.00;99.90;;;;;;5095309;28;20548;-65
2020/12/08 01:59:34;;;;;;;20.95;11.30;;;2.00;99.90;;;;;;5096016;28;19988;-65
2020/12/08 02:02:00;;;;;;;23.33;12.03;;;2.00;99.90;;;;;;5097147;28;20028;-65
2020/12/08 02:04:25;;;;;;;20.02;11.00;;;1.90;99.90;;;;;;5097145;28;20095;-65
2020/12/08 02:06:51;;;;;;;27.87;13.33;;;1.90;99.90;;;;;;5097179;28;20052;-65
2020/12/08 02:09:17;;;;;;;23.40;11.43;;;1.80;99.90;;;;;;5097284;28;20508;-66
2020/12/08 02:11:42;;;;;;;22.30;12.10;;;1.80;99.90;;;;;;5097179;28;20020;-65
2020/12/08 02:14:08;;;;;;;26.33;12.97;;;1.70;99.90;;;;;;5097334;28;20053;-64
2020/12/08 02:16:33;;;;;;;26.30;13.30;;;1.70;99.90;;;;;;5095776;28;20476;-66
2020/12/08 02:18:59;;;;;;;23.90;12.50;;;1.60;99.90;;;;;;5095857;28;20031;-65
2020/12/08 02:21:30;;;;;;;26.57;13.53;;;1.60;99.90;;;;;;5097480;28;20054;-65
2020/12/08 02:23:55;;;;;;;26.85;13.68;;;1.60;99.90;;;;;;5096839;28;20032;-65
2020/12/08 02:26:21;;;;;;;26.97;13.67;;;1.60;99.90;;;;;;5097365;28;20506;-64
2020/12/08 02:28:47;;;;;;;25.17;13.80;;;1.60;99.90;;;;;;5096858;28;20031;-64
2020/12/08 02:31:12;;;;;;;27.63;13.97;;;1.60;99.90;;;;;;5095407;28;20012;-66
2020/12/08 02:33:38;;;;;;;23.67;12.53;;;1.60;99.90;;;;;;5097225;28;20020;-65
2020/12/08 02:36:04;;;;;;;24.30;12.33;;;1.70;99.90;;;;;;5095462;28;20028;-65
2020/12/08 02:38:29;;;;;;;25.73;13.53;;;1.70;99.90;;;;;;5096762;28;20036;-63
2020/12/08 02:40:55;;;;;;;26.03;13.57;;;1.80;99.90;;;;;;5095475;28;20028;-64
2020/12/08 02:43:22;;;;;;;25.33;13.07;;;1.80;99.90;;;;;;5096888;28;20020;-65
2020/12/08 02:45:47;;;;;;;;;;;1.80;99.90;;;;;;5097285;28;20055;-63
2020/12/08 02:48:14;;;;;;;24.98;13.70;;;1.90;99.90;;;;;;5096601;28;19904;-64
2020/12/08 02:50:40;;;;;;;24.13;12.95;;;2.00;99.90;;;;;;5095311;28;20032;-64
2020/12/08 02:53:06;;;;;;;26.23;13.05;;;2.10;99.90;;;;;;5096728;28;20020;-65
2020/12/08 02:55:32;;;;;;;27.33;14.07;;;2.10;99.90;;;;;;5096252;28;20472;-65
2020/12/08 02:57:57;;;;;;;28.42;14.68;;;2.10;99.90;;;;;;5096912;28;20358;-65
2020/12/08 03:00:23;;;;;;;23.53;12.77;;;2.20;99.90;;;;;;5096414;28;20032;-65
2020/12/08 03:02:49;;;;;;;25.10;13.50;;;2.30;99.90;;;;;;5096848;28;20020;-65
2020/12/08 03:05:14;;;;;;;25.97;13.53;;;2.30;99.90;;;;;;5094757;28;20506;-64
2020/12/08 03:07:40;;;;;;;22.27;13.13;;;2.40;99.90;;;;;;5095227;28;20494;-64
2020/12/08 03:10:07;;;;;;;23.30;13.00;;;2.40;99.90;;;;;;5096262;28;20024;-65
2020/12/08 03:12:33;;;;;;;27.08;15.00;;;2.40;99.90;;;;;;5094980;28;20529;-65
2020/12/08 03:14:59;;;;;;;25.85;13.80;;;2.50;99.90;;;;;;5094708;28;20061;-65
2020/12/08 03:17:25;;;;;;;25.27;13.67;;;2.40;99.90;;;;;;5096553;28;20024;-65
2020/12/08 03:19:51;;;;;;;25.37;13.50;;;2.50;99.90;;;;;;5096447;28;20038;-65
2020/12/08 03:22:16;;;;;;;25.30;13.77;;;2.50;99.90;;;;;;5096899;28;20122;-64
2020/12/08 03:24:42;;;;;;;23.77;13.30;;;2.50;99.90;;;;;;5096329;28;20297;-65
2020/12/08 03:27:08;;;;;;;24.17;13.83;;;2.60;99.90;;;;;;5096296;28;20433;-65
2020/12/08 03:29:33;;;;;;;24.67;14.03;;;2.60;99.90;;;;;;5096083;28;20522;-65
2020/12/08 03:31:59;;;;;;;26.40;14.63;;;2.50;99.90;;;;;;5095683;28;20031;-64
2020/12/08 03:34:25;;;;;;;31.37;15.07;;;2.50;99.90;;;;;;5096097;28;20035;-65
2020/12/08 03:36:50;;;;;;;28.30;15.23;;;2.50;99.90;;;;;;5095731;28;20262;-65
2020/12/08 03:39:17;;;;;;;28.90;14.93;;;2.50;99.90;;;;;;5095631;28;20027;-64
2020/12/08 03:41:43;;;;;;;31.48;15.57;;;2.40;99.90;;;;;;5095676;28;20499;-64
2020/12/08 03:44:09;;;;;;;27.45;14.25;;;2.40;99.90;;;;;;5094290;28;20141;-65
2020/12/08 03:46:34;;;;;;;28.95;14.27;;;2.30;99.90;;;;;;5097315;28;20023;-65
2020/12/08 03:49:00;;;;;;;29.67;15.43;;;2.30;99.90;;;;;;5097761;28;20053;-65
2020/12/08 03:51:26;;;;;;;27.33;14.63;;;2.30;99.90;;;;;;5097357;28;20020;-64
2020/12/08 03:53:51;;;;;;;28.73;15.10;;;2.30;99.90;;;;;;5095872;28;20495;-64
2020/12/08 03:56:18;;;;;;;29.50;15.07;;;2.30;99.90;;;;;;5093924;28;20059;-64
2020/12/08 03:58:45;;;;;;;27.80;15.05;;;2.30;99.90;;;;;;5095680;28;20020;-63
2020/12/08 04:01:16;;;;;;;30.52;14.48;;;2.30;99.90;;;;;;5095214;28;20024;-65
2020/12/08 04:03:44;;;;;;;27.35;14.75;;;2.50;99.90;;;;;;5095185;28;20024;-64
2020/12/08 04:06:12;;;;;;;28.25;15.60;;;2.60;99.90;;;;;;5094984;28;20088;-64
2020/12/08 04:08:38;;;;;;;25.83;14.60;;;2.60;99.90;;;;;;5095155;28;20461;-64
2020/12/08 04:11:04;;;;;;;25.75;14.63;;;2.60;99.90;;;;;;5093799;28;20030;-65
2020/12/08 04:13:30;;;;;;;27.63;15.03;;;2.60;99.90;;;;;;5095348;28;20107;-64
2020/12/08 04:15:55;;;;;;;29.27;15.07;;;2.60;99.90;;;;;;5095010;28;20392;-66
2020/12/08 04:18:21;;;;;;;25.77;14.53;;;2.60;99.90;;;;;;5095022;28;20028;-66
2020/12/08 04:20:47;;;;;;;27.10;14.83;;;2.70;99.90;;;;;;5095829;28;20427;-64
2020/12/08 04:23:15;;;;;;;27.00;14.83;;;2.70;99.90;;;;;;5096796;28;20024;-64
2020/12/08 04:25:41;;;;;;;25.23;13.88;;;2.70;99.90;;;;;;5096430;28;20507;-64
2020/12/08 04:28:08;;;;;;;24.83;13.63;;;2.70;99.90;;;;;;5096108;28;20024;-64
2020/12/08 04:30:35;;;;;;;25.90;13.73;;;2.80;99.90;;;;;;5094644;28;20024;-65
2020/12/08 04:33:02;;;;;;;27.77;14.85;;;2.80;99.90;;;;;;5094660;28;20039;-64
2020/12/08 04:35:28;;;;;;;27.15;14.52;;;2.80;99.90;;;;;;5094571;28;20019;-65
2020/12/08 04:37:54;;;;;;;27.60;14.85;;;2.80;99.90;;;;;;5094726;28;20040;-64
2020/12/08 04:40:20;;;;;;;24.00;13.63;;;2.80;99.90;;;;;;5094717;28;20477;-65
2020/12/08 04:42:47;;;;;;;24.75;13.75;;;2.80;99.90;;;;;;5094438;28;20027;-65
2020/12/08 04:45:14;;;;;;;24.88;14.02;;;2.90;99.90;;;;;;5094380;28;20021;-65
2020/12/08 04:47:42;;;;;;;24.33;13.77;;;2.80;99.90;;;;;;5094337;28;20480;-64
2020/12/08 04:50:08;;;;;;;28.02;15.15;;;2.80;99.90;;;;;;5094423;28;20028;-65
2020/12/08 04:52:34;;;;;;;24.83;13.87;;;2.80;99.90;;;;;;5093106;28;20464;-65
2020/12/08 04:55:01;;;;;;;27.10;14.50;;;2.80;99.90;;;;;;5094385;28;20032;-66
2020/12/08 04:57:27;;;;;;;26.27;15.07;;;2.70;99.90;;;;;;5096181;28;20034;-65
2020/12/08 05:00:10;;;;;;;27.47;14.73;;;2.70;99.90;;;;;;5096547;28;20048;-63
2020/12/08 05:02:53;;;;;;;27.30;15.10;;;2.60;99.90;;;;;;5095719;28;20055;-63
2020/12/08 05:05:20;;;;;;;27.30;16.17;;;2.60;99.90;;;;;;5093939;28;20099;-65
2020/12/08 05:07:47;;;;;;;27.27;15.13;;;2.50;99.90;;;;;;5093868;28;20081;-64
2020/12/08 05:10:13;;;;;;;29.55;15.48;;;2.50;99.90;;;;;;5094252;28;20024;-64
2020/12/08 05:12:39;;;;;;;30.63;14.50;;;2.50;99.90;;;;;;5092563;28;20020;-64
2020/12/08 05:15:14;;;;;;;27.97;16.20;;;2.50;99.90;;;;;;5094047;28;20032;-66
2020/12/08 05:17:40;;;;;;;26.95;14.93;;;2.60;99.90;;;;;;5093180;28;20495;-64
2020/12/08 05:20:08;;;;;;;27.23;14.00;;;2.60;99.90;;;;;;5094378;28;20052;-64
2020/12/08 05:22:35;;;;;;;24.80;14.00;;;2.70;99.90;;;;;;5094009;28;20039;-65
2020/12/08 05:25:10;;;;;;;;;;;2.80;99.90;;;;;;5093124;28;20036;-64
2020/12/08 05:27:36;;;;;;;23.23;13.82;;;2.80;99.90;;;;;;5093618;28;19911;-64
2020/12/08 05:30:08;;;;;;;26.67;14.10;;;2.90;99.90;;;;;;5094163;28;20016;-64
2020/12/08 05:32:36;;;;;;;23.92;13.98;;;3.00;99.90;;;;;;5092121;28;20634;-65
2020/12/08 05:35:09;;;;;;;25.80;14.45;;;3.00;99.90;;;;;;5093491;28;20031;-65
2020/12/08 05:37:42;;;;;;;26.42;15.00;;;3.10;99.90;;;;;;5094004;28;20028;-64
2020/12/08 05:40:10;;;;;;;26.92;14.30;;;3.10;99.90;;;;;;5093846;28;20107;-65
2020/12/08 05:42:43;;;;;;;24.48;13.10;;;3.20;99.90;;;;;;5093642;28;20028;-65
2020/12/08 05:45:12;;;;;;;24.33;13.05;;;3.20;99.90;;;;;;5093491;28;20051;-64
2020/12/08 05:47:54;;;;;;;26.45;13.07;;;3.20;99.90;;;;;;5092331;28;20024;-64
2020/12/08 05:50:22;;;;;;;24.52;14.38;;;3.30;99.90;;;;;;5096914;28;20028;-65
2020/12/08 05:52:57;;;;;;;23.67;13.90;;;3.30;99.90;;;;;;5092586;28;20027;-64
2020/12/08 05:55:32;;;;;;;24.65;13.63;;;3.30;99.90;;;;;;5092234;28;20020;-64
2020/12/08 05:58:06;;;;;;;25.02;14.13;;;3.40;99.90;;;;;;5093761;28;20032;-66
2020/12/08 06:00:33;;;;;;;25.75;14.65;;;3.40;99.90;;;;;;5093953;28;20025;-65
2020/12/08 06:03:11;;;;;;;26.48;15.25;;;3.40;99.90;;;;;;5092187;28;20024;-65
2020/12/08 06:05:38;;;;;;;24.50;14.27;;;3.40;99.90;;;;;;5093452;28;20069;-64
2020/12/08 06:08:22;;;;;;;27.10;15.00;;;3.40;99.90;;;;;;5094139;28;20028;-65
2020/12/08 06:10:50;;;;;;;29.33;16.98;;;3.30;99.90;;;;;;5093480;28;20024;-65
2020/12/08 06:13:26;;;;;;;28.67;16.48;;;3.30;99.90;;;;;;5092390;28;20053;-65
2020/12/08 06:15:54;;;;;;;28.23;16.25;;;3.30;99.90;;;;;;5092109;28;20024;-65
2020/12/08 06:18:31;;;;;;;27.17;15.82;;;3.20;99.90;;;;;;5091874;28;20032;-65
2020/12/08 06:20:57;;;;;;;27.20;15.13;;;3.20;99.90;;;;;;5093899;28;20020;-65
2020/12/08 06:23:23;;;;;;;27.92;16.42;;;3.10;99.90;;;;;;5093517;28;20031;-65
2020/12/08 06:26:02;;;;;;;31.17;17.13;;;3.10;99.90;;;;;;5092929;28;20036;-65
2020/12/08 06:28:29;;;;;;;32.15;16.88;;;2.90;99.90;;;;;;5093837;28;20067;-68
2020/12/08 06:31:01;;;;;;;35.63;18.10;;;2.90;99.90;;;;;;5092390;28;20016;-68
2020/12/08 06:33:28;;;;;;;32.88;17.48;;;2.80;99.90;;;;;;5093556;28;20096;-69
2020/12/08 06:36:01;;;;;;;33.92;18.27;;;2.80;99.90;;;;;;5093460;28;20024;-69
2020/12/08 06:38:27;;;;;;;33.97;17.88;;;2.90;99.90;;;;;;5091924;28;20024;-66
2020/12/08 06:40:54;;;;;;;34.00;17.80;;;2.80;99.90;;;;;;5093257;28;20043;-64
2020/12/08 06:43:21;;;;;;;31.10;16.88;;;2.80;99.90;;;;;;5094362;28;20032;-67
2020/12/08 06:45:47;;;;;;;34.58;18.10;;;2.80;99.90;;;;;;5095234;28;20024;-66
2020/12/08 06:48:17;;;;;;;;;;;2.80;99.90;;;;;;5097108;28;20051;-67
2020/12/08 06:50:42;;;;;;;35.70;18.80;;;2.80;99.90;;;;;;5096871;28;19904;-65
2020/12/08 06:53:08;;;;;;;30.73;17.83;;;2.90;99.90;;;;;;5096602;28;20027;-65
2020/12/08 06:55:50;;;;;;;36.50;18.27;;;2.80;99.90;;;;;;5096349;28;20472;-65
2020/12/08 06:58:17;;;;;;;34.65;18.45;;;2.90;99.90;;;;;;5095336;28;20126;-65
2020/12/08 07:00:44;;;;;;;35.58;19.02;;;2.90;99.90;;;;;;5096635;28;20032;-65
2020/12/08 07:03:11;;;;;;;36.92;19.75;;;2.90;99.90;;;;;;5096245;28;20034;-64
2020/12/08 07:05:37;;;;;;;37.05;19.08;;;2.90;99.90;;;;;;5096115;28;20144;-64
2020/12/08 07:08:05;;;;;;;35.20;17.98;;;2.90;99.90;;;;;;5094932;28;20468;-65
2020/12/08 07:10:37;;;;;;;36.72;18.92;;;2.90;99.90;;;;;;5096888;28;20028;-65
2020/12/08 07:13:12;;;;;;;35.45;18.23;;;2.80;99.90;;;;;;5096252;28;20362;-64
2020/12/08 07:15:39;;;;;;;41.83;21.92;;;2.80;99.90;;;;;;5095896;28;20036;-66
2020/12/08 07:18:07;;;;;;;35.92;19.70;;;2.70;99.90;;;;;;5096188;28;20028;-66
2020/12/08 07:20:33;;;;;;;45.88;21.70;;;2.60;99.90;;;;;;5094810;28;20054;-64
2020/12/08 07:23:04;;;;;;;36.03;19.40;;;2.60;99.90;;;;;;5094760;28;20024;-65
2020/12/08 07:25:31;;;;;;;37.83;20.17;;;2.60;99.90;;;;;;5095768;28;20043;-65
2020/12/08 07:27:57;;;;;;;;;;;2.50;99.90;;;;;;5096739;28;20031;-65
2020/12/08 07:30:26;;;;;;;36.97;18.35;;;2.60;99.90;;;;;;5095703;28;19982;-65
2020/12/08 07:33:06;;;;;;;38.05;19.83;;;2.60;99.90;;;;;;5095846;28;20061;-65
2020/12/08 07:35:35;;;;;;;36.75;19.00;;;2.60;99.90;;;;;;5095958;28;20016;-65
2020/12/08 07:38:01;;;;;;;35.85;18.85;;;2.70;99.90;;;;;;5095634;28;20016;-66
2020/12/08 07:40:38;;;;;;;36.63;18.92;;;2.80;99.90;;;;;;5094447;28;20122;-66
2020/12/08 07:43:05;;;;;;;37.40;18.30;;;2.90;99.90;;;;;;5095841;28;20032;-66
2020/12/08 07:45:32;;;;;;;39.15;20.15;;;3.00;99.90;;;;;;5095622;28;20031;-65
2020/12/08 07:48:00;;;;;;;39.30;21.00;;;3.00;99.90;;;;;;5094197;28;20476;-65
2020/12/08 07:50:29;;;;;;;37.05;19.65;;;3.00;99.90;;;;;;5095804;28;20132;-65
2020/12/08 07:53:03;;;;;;;44.80;22.35;;;3.00;99.90;;;;;;5100568;28;20020;-64
2020/12/08 07:55:30;;;;;;;44.25;21.33;;;2.90;99.90;;;;;;5103244;28;20024;-65
2020/12/08 07:57:57;;;;;;;45.13;21.23;;;2.90;99.90;;;;;;5100502;28;20020;-66
2020/12/08 08:00:23;;;;;;;37.42;20.50;;;2.90;99.90;;;;;;5098114;28;20024;-66
2020/12/08 08:02:49;;;;;;;40.67;20.40;;;2.90;99.90;;;;;;5098669;28;20058;-66
2020/12/08 08:05:14;;;;;;;37.87;19.53;;;2.90;99.90;;;;;;5097435;28;20099;-66
2020/12/08 08:07:41;;;;;;;38.38;20.77;;;2.90;99.90;;;;;;5097124;28;20024;-66
2020/12/08 08:10:07;;;;;;;;;;;2.80;99.90;;;;;;5096744;28;20028;-65
2020/12/08 08:12:32;;;;;;;41.88;20.98;;;2.80;99.90;;;;;;5098447;28;19926;-66
2020/12/08 08:14:58;;;;;;;37.83;19.73;;;2.80;99.90;;;;;;5098380;28;20032;-66
2020/12/08 08:17:23;;;;;;;38.07;19.53;;;2.80;99.90;;;;;;5098908;28;20024;-66
2020/12/08 08:19:49;;;;;;;38.73;20.30;;;2.80;99.90;;;;;;5098092;28;20032;-67
2020/12/08 08:22:15;;;;;;;39.78;21.30;;;2.80;99.90;;;;;;5098645;28;20020;-65
2020/12/08 08:24:41;;;;;;;37.25;19.63;;;2.80;99.90;;;;;;5099851;28;20079;-67
2020/12/08 08:27:06;;;;;;;40.17;20.17;;;2.80;99.90;;;;;;5097717;28;20115;-66
2020/12/08 08:29:32;;;;;;;42.43;21.67;;;2.90;99.90;;;;;;5097569;28;20067;-66
2020/12/08 08:31:58;;;;;;;39.80;21.90;;;2.90;99.90;;;;;;5097437;28;20026;-65
2020/12/08 08:34:23;;;;;;;40.53;22.40;;;2.90;99.90;;;;;;5096250;28;20025;-65
2020/12/08 08:36:54;;;;;;;38.80;20.30;;;2.90;99.90;;;;;;5094540;28;20035;-66
2020/12/08 08:39:20;;;;;;;38.35;20.20;;;2.90;99.90;;;;;;5096125;28;20024;-66
2020/12/08 08:41:46;;;;;;;40.90;20.20;;;3.00;99.90;;;;;;5094936;28;20032;-66
2020/12/08 08:44:11;;;;;;;40.07;19.53;;;3.00;99.90;;;;;;5094941;28;20073;-66
2020/12/08 08:46:41;;;;;;;43.43;21.53;;;3.00;99.90;;;;;;5092923;28;20088;-65
2020/12/08 08:49:07;;;;;;;37.92;18.88;;;3.10;99.90;;;;;;5094626;28;20020;-66
2020/12/08 08:51:34;;;;;;;37.55;20.17;;;3.10;99.90;;;;;;5094811;28;20023;-66
2020/12/08 08:54:00;;;;;;;36.30;19.88;;;3.20;99.90;;;;;;5094328;28;20032;-66
2020/12/08 08:56:25;;;;;;;37.73;20.40;;;3.30;99.90;;;;;;5094731;28;20032;-66
2020/12/08 08:58:51;;;;;;;37.43;20.00;;;3.30;99.90;;;;;;5094912;28;20031;-66
2020/12/08 09:01:17;;;;;;;39.67;21.80;;;3.30;99.90;;;;;;5096524;28;20035;-66
2020/12/08 09:03:50;;;;;;;39.47;20.90;;;3.30;99.90;;;;;;5096540;28;20020;-64
2020/12/08 09:06:16;;;;;;;40.30;19.83;;;3.30;99.90;;;;;;5097097;28;20099;-66
2020/12/08 09:08:44;;;;;;;37.72;20.52;;;3.30;99.90;;;;;;5096410;28;20063;-66
2020/12/08 09:11:13;;;;;;;37.42;19.85;;;3.30;99.90;;;;;;5093494;28;20485;-67
2020/12/08 09:13:42;;;;;;;36.63;19.42;;;3.30;99.90;;;;;;5094052;28;20027;-65
2020/12/08 09:16:08;;;;;;;38.00;20.10;;;3.40;99.90;;;;;;5095400;28;20051;-66
2020/12/08 09:18:34;;;;;;;35.78;19.73;;;3.50;99.90;;;;;;5095775;28;20027;-66
2020/12/08 09:21:03;;;;;;;36.13;19.73;;;3.70;99.90;;;;;;5095063;28;20031;-66
2020/12/08 09:23:29;;;;;;;38.78;20.45;;;3.90;99.90;;;;;;5095201;28;20067;-68
2020/12/08 09:25:58;;;;;;;34.55;18.92;;;4.00;99.90;;;;;;5099924;28;20113;-66
2020/12/08 09:28:25;;;;;;;33.63;18.63;;;4.10;99.90;;;;;;5100761;28;20021;-65
2020/12/08 09:30:54;;;;;;;32.33;18.55;;;4.30;99.90;;;;;;5098866;28;20053;-65
2020/12/08 09:33:20;;;;;;;34.30;18.67;;;4.30;99.90;;;;;;5094209;28;20020;-66
2020/12/08 09:35:46;;;;;;;33.27;18.57;;;4.30;99.90;;;;;;5093861;28;20061;-66
2020/12/08 09:38:12;;;;;;;34.17;19.13;;;4.30;99.90;;;;;;5093989;28;20020;-65
2020/12/08 09:40:41;;;;;;;34.30;18.67;;;4.40;99.90;;;;;;5094139;28;20053;-65
2020/12/08 09:43:10;;;;;;;33.08;18.23;;;4.40;99.90;;;;;;5093840;28;20099;-65
2020/12/08 09:45:38;;;;;;;36.33;19.75;;;4.60;99.90;;;;;;5093423;28;20024;-65
2020/12/08 09:48:04;;;;;;;36.78;18.58;;;4.70;99.90;;;;;;5093507;28;20023;-66
2020/12/08 09:50:30;;;;;;;34.85;19.48;;;4.80;99.90;;;;;;5093596;28;20412;-65
2020/12/08 09:52:56;;;;;;;30.98;17.38;;;5.00;99.90;;;;;;5094011;28;20024;-65
2020/12/08 09:55:23;;;;;;;32.25;19.55;;;5.10;99.90;;;;;;5093580;28;20043;-67
2020/12/08 09:57:48;;;;;;;34.80;20.20;;;5.10;99.90;;;;;;5093786;28;20078;-65
2020/12/08 10:00:14;;;;;;;33.20;19.13;;;5.00;99.90;;;;;;5093746;28;20028;-66
2020/12/08 10:02:40;;;;;;;33.77;19.40;;;5.00;99.90;;;;;;5092383;28;20028;-65
2020/12/08 10:05:06;;;;;;;31.92;17.88;;;5.00;99.90;;;;;;5093535;28;20535;-65
2020/12/08 10:07:31;;;;;;;34.90;19.87;;;5.00;99.90;;;;;;5093451;28;20168;-66
2020/12/08 10:09:57;;;;;;;33.20;19.07;;;5.00;99.90;;;;;;5093755;28;20465;-65
2020/12/08 10:12:23;;;;;;;34.87;19.10;;;4.90;99.90;;;;;;5093209;28;20059;-65
2020/12/08 10:14:48;;;;;;;36.30;18.23;;;4.70;99.90;;;;;;5093148;28;20177;-66
2020/12/08 10:17:15;;;;;;;35.87;19.23;;;4.70;99.90;;;;;;5094624;28;20028;-65
2020/12/08 10:19:42;;;;;;;33.97;18.63;;;4.60;99.90;;;;;;5097284;28;20027;-66
2020/12/08 10:22:08;;;;;;;;;;;4.50;99.90;;;;;;5097747;28;20020;-64
2020/12/08 10:24:33;;;;;;;37.78;19.90;;;4.50;99.90;;;;;;5096576;28;20284;-65
2020/12/08 10:26:59;;;;;;;32.10;18.50;;;4.60;99.90;;;;;;5097017;28;20024;-64
2020/12/08 10:29:25;;;;;;;36.47;19.27;;;4.60;99.90;;;;;;5096743;28;20020;-65
2020/12/08 10:31:51;;;;;;;34.77;19.93;;;4.60;99.90;;;;;;5096761;28;20031;-66
2020/12/08 10:34:19;;;;;;;34.00;19.38;;;4.70;99.90;;;;;;5096733;28;20055;-66
2020/12/08 10:36:46;;;;;;;35.92;20.02;;;4.90;99.90;;;;;;5097129;28;20028;-67
2020/12/08 10:39:12;;;;;;;38.08;21.23;;;5.10;99.90;;;;;;5096918;28;20042;-66
2020/12/08 10:41:38;;;;;;;35.85;21.65;;;5.40;99.90;;;;;;5097042;28;20080;-67
2020/12/08 10:44:06;;;;;;;33.25;20.30;;;5.40;99.90;;;;;;5096969;28;20415;-67
2020/12/08 10:46:32;;;;;;;36.65;20.42;;;5.50;99.90;;;;;;5096809;28;20020;-67
2020/12/08 10:48:59;;;;;;;34.65;19.70;;;5.50;99.90;;;;;;5095446;28;20017;-66
2020/12/08 10:51:25;;;;;;;32.40;17.92;;;5.50;99.90;;;;;;5096411;28;20034;-66
2020/12/08 10:53:51;;;;;;;33.37;18.93;;;5.50;99.90;;;;;;5096575;28;20107;-66
2020/12/08 10:56:20;;;;;;;31.93;17.60;;;5.50;99.90;;;;;;5096504;28;20024;-65
2020/12/08 10:58:47;;;;;;;34.10;18.88;;;5.50;99.90;;;;;;5096324;28;20264;-65
2020/12/08 11:01:20;;;;;;;34.00;19.65;;;5.40;99.90;;;;;;5096038;28;20099;-65
2020/12/08 11:03:47;;;;;;;34.47;20.23;;;5.40;99.90;;;;;;5094401;28;20435;-65
2020/12/08 11:06:23;;;;;;;;;;;5.20;99.90;;;;;;5096719;28;20081;-66
2020/12/08 11:08:49;;;;;;;32.83;18.08;;;5.20;99.90;;;;;;5095799;28;19904;-65
2020/12/08 11:11:24;;;;;;;35.38;19.30;;;5.10;99.90;;;;;;5096418;28;20052;-65
2020/12/08 11:13:54;;;;;;;38.63;21.48;;;5.20;99.90;;;;;;5094888;28;20492;-67
2020/12/08 11:16:20;;;;;;;36.17;19.45;;;5.20;99.90;;;;;;5096075;28;20512;-65
2020/12/08 11:18:46;;;;;;;36.72;20.17;;;5.20;99.90;;;;;;5096323;28;20030;-65
2020/12/08 11:21:13;;;;;;;39.58;22.05;;;5.20;99.90;;;;;;5095872;28;20024;-66
2020/12/08 11:23:41;;;;;;;36.58;21.17;;;5.10;99.90;;;;;;5095651;28;20024;-66
2020/12/08 11:26:11;;;;;;;39.33;21.23;;;5.10;99.90;;;;;;5094705;28;20396;-65
2020/12/08 11:28:37;;;;;;;36.10;20.40;;;5.20;99.90;;;;;;5094976;28;20102;-65
2020/12/08 11:31:04;;;;;;;33.95;18.90;;;5.30;99.90;;;;;;5095603;28;20031;-65
2020/12/08 11:33:29;;;;;;;36.17;20.80;;;5.30;99.90;;;;;;5095889;28;20494;-65
2020/12/08 11:35:55;;;;;;;32.80;19.27;;;5.30;99.90;;;;;;5095739;28;20089;-65
2020/12/08 11:38:22;;;;;;;36.78;19.83;;;5.40;99.90;;;;;;5095624;28;20024;-65
2020/12/08 11:40:47;;;;;;;32.85;19.30;;;5.40;99.90;;;;;;5094062;28;20032;-65
2020/12/08 11:43:13;;;;;;;34.83;19.10;;;5.50;99.90;;;;;;5095244;28;20016;-65
2020/12/08 11:45:39;;;;;;;33.77;18.60;;;5.50;99.90;;;;;;5094900;28;20485;-65
2020/12/08 11:48:04;;;;;;;38.70;20.83;;;5.50;99.90;;;;;;5093765;28;20473;-67
2020/12/08 11:50:30;;;;;;;33.03;18.93;;;5.50;99.90;;;;;;5093829;28;20055;-65
2020/12/08 11:52:56;;;;;;;30.65;17.10;;;5.50;99.90;;;;;;5095190;28;20020;-65
2020/12/08 11:55:22;;;;;;;33.80;18.57;;;5.50;99.90;;;;;;5095086;28;20427;-66
2020/12/08 11:57:47;;;;;;;35.23;19.97;;;5.60;99.90;;;;;;5095374;28;20027;-65
2020/12/08 12:00:13;;;;;;;32.20;18.30;;;5.50;99.90;;;;;;5095008;28;20540;-65
2020/12/08 12:02:39;;;;;;;33.10;18.17;;;5.50;99.90;;;;;;5095124;28;20065;-65
2020/12/08 12:05:05;;;;;;;28.80;18.10;;;5.50;99.90;;;;;;5093865;28;20028;-66
2020/12/08 12:07:31;;;;;;;30.30;18.23;;;5.60;99.90;;;;;;5093713;28;20027;-66
2020/12/08 12:09:56;;;;;;;32.00;18.90;;;5.60;99.90;;;;;;5093591;28;20093;-66
2020/12/08 12:12:22;;;;;;;31.73;18.73;;;5.60;99.90;;;;;;5094827;28;20019;-65
2020/12/08 12:14:48;;;;;;;31.50;18.43;;;5.60;99.90;;;;;;5094991;28;20521;-65
2020/12/08 12:17:13;;;;;;;32.20;17.90;;;5.60;99.90;;;;;;5094692;28;20051;-64
2020/12/08 12:19:39;;;;;;;31.40;18.43;;;5.60;99.90;;;;;;5095063;28;20376;-66
2020/12/08 12:22:04;;;;;;;32.53;17.77;;;5.60;99.90;;;;;;5093205;28;20027;-66
2020/12/08 12:24:30;;;;;;;31.07;17.73;;;5.60;99.90;;;;;;5094036;28;20551;-65
2020/12/08 12:26:56;;;;;;;30.33;18.13;;;5.60;99.90;;;;;;5094511;28;20384;-65
2020/12/08 12:29:21;;;;;;;31.17;17.57;;;5.60;99.90;;;;;;5094376;28;20451;-65
2020/12/08 12:31:48;;;;;;;33.10;19.33;;;5.60;99.90;;;;;;5094395;28;20024;-65
2020/12/08 12:34:14;;;;;;;30.35;18.17;;;5.60;99.90;;;;;;5093010;28;20068;-65
2020/12/08 12:36:41;;;;;;;34.33;19.17;;;5.60;99.90;;;;;;5094503;28;20024;-65
2020/12/08 12:39:07;;;;;;;30.92;18.73;;;5.60;99.90;;;;;;5094426;28;20032;-65